Suggestion Search

Define a bounding box (note: it will not wrap North/South over poles). If the range is zero degrees, a bounding box will not be used to constrain the search.

Centered On °   °

Match text in the suggestion title, science rationale or special notes. The search is case-insensitive. % is a wildcard (_ for a single character).

Find
Search

You may select science themes to limit query, otherwise suggestions from all themes will be returned.

Multiple values may be selected (shift + click).

  Rows per page
3,969 records found, displaying 301 to 400.[First/Prev] 1, 2, 3, 4, 5, 6, 7, 8 [Next/Last]
ID Suggestion Title Latitude Longitude Repeat Created Observation ID
168547 Possible olivine-rich knob in Argyre Planitia -40.590 323.186 1 2018-11-26 ESP_057972_1390
168545 Periglacial terrain -54.999 156.660 1 2018-11-26
168543 Possible olivine-rich pedestal crater within Hipparchus Crater -44.359 209.596 1 2018-11-26 ESP_057963_1355
168541 Crater in Margaritifer Terra -15.919 341.800 1 2018-11-26
168539 Candidate recent impact site -14.285 9.167 1 2018-11-26 ESP_057957_1655
168537 Landforms on floor of Antoniadi Crater 21.147 59.662 1 2018-11-26 ESP_057955_2015
168535 Richardson Crater dune field -72.000 179.414 1 2018-11-26 ESP_057938_1080
168533 Olympus Maculae 17.134 217.910 1 2018-11-26 ESP_057936_1975
168531 South polar residual cap -84.120 281.426 1 2018-11-26 ESP_057935_0960
168529 Jarosite stratigraphy in Ius Chasma -6.862 275.555 1 2018-11-26 ESP_057934_1730
168527 Gullied material on crater wall in CTX B18_016512_1369_XI_43S357W -41.726 2.534 1 2018-11-26 ESP_057931_1380
168525 Terrain sample -9.999 52.524 1 2018-11-26 ESP_057929_1700
168523 Candidate recent impact site -17.925 108.341 1 2018-11-26 ESP_057927_1620
168521 Terrain sample -19.999 217.499 1 2018-11-26 ESP_057923_1600
168519 South polar residual cap -84.219 302.409 1 2018-11-26 ESP_057921_0955
168517 Candidate recent impact site 28.961 15.420 1 2018-11-26 ESP_057917_2090
168515 Dark filamentary streak site in Noachis Terra -60.857 27.374 1 2018-11-26 ESP_057917_1190
168513 Terrain in Isidis Planitia -1.549 101.064 1 2018-11-26 ESP_057914_1785
168511 Olivine-rich scarp in Terra Sirenum -47.450 215.356 1 2018-11-26 ESP_057910_1320
168509 Wind streak monitoring site northwest of Uranius Tholus 27.463 261.185 1 2018-11-26 ESP_057908_2075
168507 Periglacial terrain -64.999 275.043 1 2018-11-26 ESP_057908_1145
168505 Landforms east of Lederberg Crater 11.769 316.197 1 2018-11-26 ESP_057906_1920
168503 Arabia Terra crater rim or escarpment 21.971 10.791 1 2018-11-26 ESP_057904_2020
168501 South polar cracked and gullied site -81.682 66.308 1 2018-11-26 ESP_057903_0980
168499 Jarosite stratigraphy in Nili Fossae 19.806 65.925 1 2018-11-26 ESP_057902_2000
168497 Possible olivine-rich terrain -22.729 70.615 1 2018-11-26 ESP_057902_1570
168495 Tartarus Colles 19.571 175.053 1 2018-11-26 ESP_057898_2000
168493 Jarosite stratigraphy in Terra Sirenum -31.568 180.975 1 2018-11-26 ESP_057898_1480
168491 Ridge and albedo boundary -32.097 208.128 1 2018-11-26 ESP_057897_1475
168489 South polar residual cap intraseasonal change monitoring -86.847 17.561 1 2018-11-26 ESP_057893_0930
168487 Tyrrhena Terra -2.941 62.694 1 2018-11-26 ESP_057889_1770
168485 Utopia Planitia 18.572 115.466 1 2018-11-26 ESP_057887_1990
168203 Concentric crater fill morphology -40.082 199.336 1 2018-11-21 ESP_057871_1395
168201 Fresh crater near Vinogradsky Crater -57.544 142.634 1 2018-11-21 ESP_057860_1220
168193 Crater in Sirenum Fossae -34.791 200.249 1 2018-11-21 ESP_057805_1445
168191 Interior of Poynting Crater 8.358 247.351 1 2018-11-21 ESP_057869_1880
168135 South polar residual cap intraseasonal change monitoring -86.960 266.089 1 2018-11-19 ESP_057884_0930
168133 Cryptic terrain margin monitoring in Main Crater -76.226 48.040 1 2018-11-19 ESP_057877_1035
168131 Depression with gullies and exposed layering northwest of Argyre Planitia -45.089 309.477 1 2018-11-19 ESP_057867_1345
168129 Recent impact crater 21.744 355.711 1 2018-11-19 ESP_057865_2020
168127 Dark slope streak monitor site overlapping previous MOC image coverage 27.501 212.586 1 2018-11-19 ESP_057857_2080
168125 Small barchan dunes -44.702 331.103 1 2018-11-19 ESP_057853_1350
168123 Candidate recent impact site -1.451 266.204 1 2018-11-19 ESP_057842_1785
168121 Recent impact crater 27.649 11.598 1 2018-11-19 ESP_057838_2080
168119 Recent impact crater 32.739 37.632 1 2018-11-19 ESP_057837_2130
168117 Monitor seasonal changes at south polar cracked and gullied site -81.682 66.308 1 2018-11-19 ESP_057837_0980
168115 Tyrrhena Terra -13.397 98.559 1 2018-11-19 ESP_057835_1665
168113 Crater slope -8.552 86.643 1 2018-11-19 ESP_057809_1715
168111 Monitor changes in Richardson Crater dune field -71.999 179.415 1 2018-11-19 ESP_057806_1080
168109 Alba Fossae 39.317 245.476 1 2018-11-19 ESP_057803_2195
168107 Curved ridge in shallow valley south of Greeley Crater -43.773 5.884 1 2018-11-19 ESP_057799_1360
164627 Candidate recent impact site -72.633 109.651 1 2017-04-24 ESP_056305_1070
164235 South polar terrain -78.657 267.301 1 2018-08-16 ESP_056616_1010
164229 South polar terrain -84.794 345.396 1 2018-08-15 ESP_056561_0950
164227 South polar terrain -83.082 114.530 1 2018-08-15 ESP_056556_0970
164225 Exposure of south polar layered deposits -83.475 142.796 1 2018-08-14 ESP_056555_0965
164223 South polar terrain -85.574 237.267 1 2018-08-15 ESP_056552_0945
164221 South polar terrain -85.238 174.477 1 2018-08-15 ESP_056541_0945
164136 Opportunity rover in western Endeavour Crater -2.333 354.651 1 2018-08-24 ESP_056955_1775
164119 South polar terrain -82.651 317.716 1 2018-08-22 ESP_056654_0975
164117 South polar terrain -76.964 275.477 1 2018-08-22 ESP_056642_1030
164115 Seasonal monitoring in region dubbed Ithaca -85.272 183.178 1 2018-08-22 ESP_056633_0945
164113 Exposure of south polar layered deposits -73.061 184.916 1 2018-08-22 ESP_056632_1070
164111 South polar monitoring -84.341 287.699 1 2018-08-22 ESP_056629_0955
164079 Gully monitoring -72.105 3.672 1 2018-08-20 ESP_056665_1075
164077 Rugged high-latitude feature -81.346 292.396 1 2018-08-20 ESP_056668_0985
164075 Gullies in Cavi Angusti -81.561 287.265 1 2018-08-20 ESP_056655_0985
164058 Possible layered deposit in open basin 32.260 68.880 1 2018-08-18 ESP_060183_2125
164039 Terrain survey 38.942 114.706 1 2018-08-17 ESP_056713_2195
164037 Plateau cut by graben 34.535 169.998 1 2018-08-17 ESP_056711_2150
164035 Slopes in Arcadia Planitia 39.115 196.614 1 2018-08-17 ESP_056710_2195
164033 Alba Patera north flank 43.965 250.345 1 2018-08-17 ESP_056708_2245
164031 Plateau cut by graben 35.849 278.928 1 2018-08-17 ESP_056707_2160
164029 South polar ridge -79.171 52.825 1 2018-08-17 ESP_056703_1005
164027 Utopia Planitia survey 41.112 109.242 1 2018-08-17 ESP_056700_2215
164025 Erebus Montes survey 41.106 191.190 1 2018-08-17 ESP_056697_2215
164023 Medusae Fossae erosional features -1.421 196.779 1 2018-08-17 ESP_056697_1785
164021 Graben on northwest flank of Alba Patera 43.052 245.384 1 2018-08-17 ESP_056695_2235
164019 Ridge in Tempe Terra 42.733 272.723 1 2018-08-17 ESP_056694_2230
164017 Northern plains survey 31.355 329.122 1 2018-08-17 ESP_056692_2115
164015 Northern plains sample 42.244 103.904 1 2018-08-17 ESP_056687_2225
164013 South polar survey -79.069 183.694 1 2018-08-17 ESP_056685_1010
164011 South polar mountain range -77.461 12.979 1 2018-08-17 ESP_056678_1025
164009 South polar survey -80.687 236.376 1 2018-08-17 ESP_056670_0990
164007 Arcadia Planitia 34.241 176.760 1 2018-08-17 ESP_056658_2145
164005 Rocky crater rim and ejecta 40.428 203.120 1 2018-08-17 ESP_056657_2210
164003 Erebus Montes 39.689 193.014 1 2018-08-17 ESP_056631_2200
164001 Olympus Mons valley 20.591 222.950 1 2018-08-17 ESP_056630_2010
163999 Olympus Mons 18.740 226.818 1 2018-08-17 ESP_056709_1985
163997 Crater ejecta -10.160 279.254 1 2018-08-17 ESP_056694_1695
163995 Seasonal monitoring northwest of Main Crater -73.710 41.439 1 2018-08-17 ESP_056690_1065
163993 South polar region cryptic terrain monitoring in Reynolds Crater -71.843 203.895 1 2018-08-17 ESP_056684_1075
163991 Change detection in Olympus Maculae 17.441 216.713 1 2018-08-17 ESP_056683_1975
163989 South polar terrain -74.086 287.801 1 2018-08-17 ESP_056681_1055
163987 Southern Ladon Vallis fault -23.379 331.085 1 2018-08-17 ESP_056679_1565
163985 Seasonal monitoring south of Pityusa Patera -71.615 35.351 1 2018-08-17 ESP_056677_1090
163983 South polar region cryptic terrain monitoring in Reynolds Crater -74.449 200.469 1 2018-08-17 ESP_056671_1055
163981 South polar residual cap -87.108 254.514 1 2018-08-17 ESP_056669_0930
163979 Seasonal monitoring near Pityusa Rupes -67.559 28.762 1 2018-08-17 ESP_056664_1120
163977 Terra Cimmeria crater -3.272 129.345 1 2018-08-17 ESP_056660_1765

Each suggestion is given a unique ID. A stereo suggestion will be made into a pair at the discretion of the Science Theme Lead.

Suggestion title.

Latitudes are expressed in planetocentric degrees.

Longitude are measured in degrees and range east from 0 to 360.

1 for a single suggestion, STEREO for a stereo suggestion, otherwise the number of suggestions in a seasonal or other repeat set.

The date on which the suggestion was created.

If the suggestion has been retired, a link to the observation page.

The username of the suggester.